sensor_id;sensor_type;location;lat;lon;timestamp;pressure;altitude;pressure_sealevel;temperature;humidity
76074;BME280;64776;42.636;24.358;2022-11-14T00:02:13;91167.34;;;0.56;86.54
76074;BME280;64776;42.636;24.358;2022-11-14T00:05:14;91169.94;;;0.60;86.21
76074;BME280;64776;42.636;24.358;2022-11-14T00:08:20;91168.06;;;0.60;86.31
76074;BME280;64776;42.636;24.358;2022-11-14T00:11:21;91162.06;;;0.60;86.28
76074;BME280;64776;42.636;24.358;2022-11-14T00:14:22;91151.88;;;0.69;86.71
76074;BME280;64776;42.636;24.358;2022-11-14T00:17:24;91162.38;;;0.69;86.39
76074;BME280;64776;42.636;24.358;2022-11-14T00:20:25;91156.41;;;0.65;86.42
76074;BME280;64776;42.636;24.358;2022-11-14T00:23:25;91148.56;;;0.61;86.17
76074;BME280;64776;42.636;24.358;2022-11-14T00:26:26;91151.56;;;0.63;85.83
76074;BME280;64776;42.636;24.358;2022-11-14T00:29:27;91145.59;;;0.59;86.55
76074;BME280;64776;42.636;24.358;2022-11-14T00:32:29;91151.19;;;0.61;86.15
76074;BME280;64776;42.636;24.358;2022-11-14T00:35:30;91147.03;;;0.64;85.64
76074;BME280;64776;42.636;24.358;2022-11-14T00:38:31;91145.97;;;0.54;85.57
76074;BME280;64776;42.636;24.358;2022-11-14T00:41:32;91149.03;;;0.46;85.79
76074;BME280;64776;42.636;24.358;2022-11-14T00:44:33;91135.84;;;0.56;86.40
76074;BME280;64776;42.636;24.358;2022-11-14T00:47:35;91137.38;;;0.50;86.15
76074;BME280;64776;42.636;24.358;2022-11-14T00:50:36;91137.81;;;0.42;86.41
76074;BME280;64776;42.636;24.358;2022-11-14T00:53:37;91140.44;;;0.42;85.67
76074;BME280;64776;42.636;24.358;2022-11-14T00:56:38;91137.44;;;0.40;85.88
76074;BME280;64776;42.636;24.358;2022-11-14T00:59:39;91132.97;;;0.33;85.13
76074;BME280;64776;42.636;24.358;2022-11-14T01:02:41;91127.00;;;0.33;85.83
76074;BME280;64776;42.636;24.358;2022-11-14T01:05:42;91132.66;;;0.21;85.39
76074;BME280;64776;42.636;24.358;2022-11-14T01:08:44;91131.53;;;0.22;86.01
76074;BME280;64776;42.636;24.358;2022-11-14T01:11:45;91133.47;;;0.14;85.25
76074;BME280;64776;42.636;24.358;2022-11-14T01:14:46;91132.34;;;0.12;85.97
76074;BME280;64776;42.636;24.358;2022-11-14T01:17:48;91133.09;;;0.09;85.17
76074;BME280;64776;42.636;24.358;2022-11-14T01:20:49;91133.16;;;-0.02;85.91
76074;BME280;64776;42.636;24.358;2022-11-14T01:23:50;91128.28;;;0.00;85.18
76074;BME280;64776;42.636;24.358;2022-11-14T01:26:53;91127.13;;;0.05;85.65
76074;BME280;64776;42.636;24.358;2022-11-14T01:29:54;91113.31;;;-0.03;85.78
76074;BME280;64776;42.636;24.358;2022-11-14T01:32:56;91118.19;;;-0.05;85.50
76074;BME280;64776;42.636;24.358;2022-11-14T01:35:58;91112.94;;;-0.05;85.35
76074;BME280;64776;42.636;24.358;2022-11-14T01:38:59;91099.47;;;-0.07;85.90
76074;BME280;64776;42.636;24.358;2022-11-14T01:42:00;91113.69;;;-0.08;85.12
76074;BME280;64776;42.636;24.358;2022-11-14T01:45:40;91110.34;;;-0.12;85.50
76074;BME280;64776;42.636;24.358;2022-11-14T01:48:25;91100.25;;;-0.17;85.19
76074;BME280;64776;42.636;24.358;2022-11-14T01:51:28;91092.72;;;-0.12;85.16
76074;BME280;64776;42.636;24.358;2022-11-14T01:54:33;91103.22;;;-0.12;85.08
76074;BME280;64776;42.636;24.358;2022-11-14T01:57:36;91094.25;;;-0.11;85.68
76074;BME280;64776;42.636;24.358;2022-11-14T02:00:38;91094.25;;;-0.11;85.42
76074;BME280;64776;42.636;24.358;2022-11-14T02:03:41;91088.22;;;-0.08;85.05
76074;BME280;64776;42.636;24.358;2022-11-14T02:06:44;91087.50;;;-0.15;84.67
76074;BME280;64776;42.636;24.358;2022-11-14T02:09:47;91077.78;;;-0.15;85.04
76074;BME280;64776;42.636;24.358;2022-11-14T02:12:48;91082.69;;;-0.24;84.92
76074;BME280;64776;42.636;24.358;2022-11-14T02:15:50;91084.56;;;-0.28;84.76
76074;BME280;64776;42.636;24.358;2022-11-14T02:18:53;91086.09;;;-0.34;84.17
76074;BME280;64776;42.636;24.358;2022-11-14T02:21:55;91086.53;;;-0.46;84.12
76074;BME280;64776;42.636;24.358;2022-11-14T02:24:56;91084.63;;;-0.45;84.46
76074;BME280;64776;42.636;24.358;2022-11-14T02:27:57;91086.53;;;-0.46;84.96
76074;BME280;64776;42.636;24.358;2022-11-14T02:30:59;91083.13;;;-0.43;84.52
76074;BME280;64776;42.636;24.358;2022-11-14T02:34:00;91086.53;;;-0.46;84.66
76074;BME280;64776;42.636;24.358;2022-11-14T02:37:02;91086.50;;;-0.49;84.50
76074;BME280;64776;42.636;24.358;2022-11-14T02:40:04;91085.00;;;-0.40;83.76
76074;BME280;64776;42.636;24.358;2022-11-14T02:43:05;91082.41;;;-0.47;82.37
76074;BME280;64776;42.636;24.358;2022-11-14T02:46:06;91077.22;;;-0.64;82.84
76074;BME280;64776;42.636;24.358;2022-11-14T02:49:07;91072.03;;;-0.78;83.93
76074;BME280;64776;42.636;24.358;2022-11-14T02:52:09;91077.25;;;-0.75;83.71
76074;BME280;64776;42.636;24.358;2022-11-14T02:55:10;91075.78;;;-0.90;83.28
76074;BME280;64776;42.636;24.358;2022-11-14T02:58:10;91069.81;;;-0.94;84.01
76074;BME280;64776;42.636;24.358;2022-11-14T03:01:11;91078.41;;;-0.90;83.63
76074;BME280;64776;42.636;24.358;2022-11-14T03:04:12;91066.81;;;-0.93;83.37
76074;BME280;64776;42.636;24.358;2022-11-14T03:07:14;91071.31;;;-1.00;83.21
76074;BME280;64776;42.636;24.358;2022-11-14T03:10:15;91070.22;;;-0.99;82.76
76074;BME280;64776;42.636;24.358;2022-11-14T03:13:16;91070.56;;;-1.04;82.42
76074;BME280;64776;42.636;24.358;2022-11-14T03:16:17;91074.34;;;-1.12;82.65
76074;BME280;64776;42.636;24.358;2022-11-14T03:19:18;91079.56;;;-1.09;82.57
76074;BME280;64776;42.636;24.358;2022-11-14T03:22:20;91068.34;;;-1.16;82.87
76074;BME280;64776;42.636;24.358;2022-11-14T03:25:22;91069.84;;;-1.15;83.06
76074;BME280;64776;42.636;24.358;2022-11-14T03:28:23;91071.72;;;-1.19;83.42
76074;BME280;64776;42.636;24.358;2022-11-14T03:31:23;91063.88;;;-1.23;83.59
76074;BME280;64776;42.636;24.358;2022-11-14T03:34:24;91066.88;;;-1.14;83.12
76074;BME280;64776;42.636;24.358;2022-11-14T03:37:26;91064.63;;;-1.22;82.88
76074;BME280;64776;42.636;24.358;2022-11-14T03:40:27;91063.88;;;-1.33;82.77
76074;BME280;64776;42.636;24.358;2022-11-14T03:43:30;91064.28;;;-1.38;82.63
76074;BME280;64776;42.636;24.358;2022-11-14T03:46:31;91063.16;;;-1.44;83.17
76074;BME280;64776;42.636;24.358;2022-11-14T03:49:32;91063.91;;;-1.40;83.11
76074;BME280;64776;42.636;24.358;2022-11-14T03:52:34;91062.41;;;-1.45;82.97
76074;BME280;64776;42.636;24.358;2022-11-14T03:55:35;91063.13;;;-1.48;82.74
76074;BME280;64776;42.636;24.358;2022-11-14T03:58:36;91053.44;;;-1.51;83.16
76074;BME280;64776;42.636;24.358;2022-11-14T04:01:36;91058.66;;;-1.37;82.73
76074;BME280;64776;42.636;24.358;2022-11-14T04:04:37;91066.13;;;-1.49;82.50
76074;BME280;64776;42.636;24.358;2022-11-14T04:07:40;91062.41;;;-1.55;82.62
76074;BME280;64776;42.636;24.358;2022-11-14T04:10:41;91051.56;;;-1.61;82.89
76074;BME280;64776;42.636;24.358;2022-11-14T04:13:42;91056.03;;;-1.69;82.26
76074;BME280;64776;42.636;24.358;2022-11-14T04:16:42;91054.16;;;-1.65;82.08
76074;BME280;64776;42.636;24.358;2022-11-14T04:19:43;91053.78;;;-1.67;82.45
76074;BME280;64776;42.636;24.358;2022-11-14T04:22:46;91058.28;;;-1.74;82.90
76074;BME280;64776;42.636;24.358;2022-11-14T04:25:46;91059.41;;;-1.72;83.35
76074;BME280;64776;42.636;24.358;2022-11-14T04:28:47;91062.38;;;-1.77;83.59
76074;BME280;64776;42.636;24.358;2022-11-14T04:31:48;91056.78;;;-1.72;83.33
76074;BME280;64776;42.636;24.358;2022-11-14T04:34:49;91057.16;;;-1.77;83.56
76074;BME280;64776;42.636;24.358;2022-11-14T04:37:51;91061.63;;;-1.81;83.48
76074;BME280;64776;42.636;24.358;2022-11-14T04:40:52;91062.41;;;-1.70;83.41
76074;BME280;64776;42.636;24.358;2022-11-14T04:43:53;91070.63;;;-1.75;83.23
76074;BME280;64776;42.636;24.358;2022-11-14T04:46:54;91067.59;;;-1.87;83.00
76074;BME280;64776;42.636;24.358;2022-11-14T04:49:54;91066.47;;;-1.93;83.08
76074;BME280;64776;42.636;24.358;2022-11-14T04:52:57;91073.94;;;-1.99;83.36
76074;BME280;64776;42.636;24.358;2022-11-14T04:55:57;91069.81;;;-2.00;83.25
76074;BME280;64776;42.636;24.358;2022-11-14T04:58:58;91071.34;;;-1.99;82.96
76074;BME280;64776;42.636;24.358;2022-11-14T05:01:59;91067.94;;;-2.10;82.73
76074;BME280;64776;42.636;24.358;2022-11-14T05:05:00;91071.69;;;-2.11;82.94
76074;BME280;64776;42.636;24.358;2022-11-14T05:08:02;91072.47;;;-1.96;83.16
76074;BME280;64776;42.636;24.358;2022-11-14T05:11:03;91072.47;;;-1.89;83.26
76074;BME280;64776;42.636;24.358;2022-11-14T05:14:04;91073.56;;;-1.94;83.05
76074;BME280;64776;42.636;24.358;2022-11-14T05:17:05;91072.09;;;-1.95;83.43
76074;BME280;64776;42.636;24.358;2022-11-14T05:20:06;91074.34;;;-1.90;83.55
76074;BME280;64776;42.636;24.358;2022-11-14T05:23:17;91071.72;;;-1.97;83.31
76074;BME280;64776;42.636;24.358;2022-11-14T05:26:19;91069.06;;;-2.07;83.23
76074;BME280;64776;42.636;24.358;2022-11-14T05:29:19;91067.94;;;-2.10;83.26
76074;BME280;64776;42.636;24.358;2022-11-14T05:32:20;91073.56;;;-2.04;83.24
76074;BME280;64776;42.636;24.358;2022-11-14T05:35:21;91082.53;;;-2.02;82.46
76074;BME280;64776;42.636;24.358;2022-11-14T05:38:23;91081.41;;;-2.11;82.37
76074;BME280;64776;42.636;24.358;2022-11-14T05:41:24;91085.88;;;-2.19;82.75
76074;BME280;64776;42.636;24.358;2022-11-14T05:44:25;91081.41;;;-2.11;83.10
76074;BME280;64776;42.636;24.358;2022-11-14T05:47:26;91088.47;;;-2.15;83.46
76074;BME280;64776;42.636;24.358;2022-11-14T05:50:27;91075.78;;;-2.10;84.55
76074;BME280;64776;42.636;24.358;2022-11-14T05:53:30;91087.75;;;-2.02;84.43
76074;BME280;64776;42.636;24.358;2022-11-14T05:56:31;91082.16;;;-1.93;84.78
76074;BME280;64776;42.636;24.358;2022-11-14T05:59:32;91077.31;;;-1.91;84.36
76074;BME280;64776;42.636;24.358;2022-11-14T06:02:32;91082.16;;;-1.97;84.07
76074;BME280;64776;42.636;24.358;2022-11-14T06:05:34;91071.34;;;-1.95;83.86
76074;BME280;64776;42.636;24.358;2022-11-14T06:08:36;91076.59;;;-1.92;83.80
76074;BME280;64776;42.636;24.358;2022-11-14T06:11:38;91081.81;;;-1.85;83.78
76074;BME280;64776;42.636;24.358;2022-11-14T06:14:38;91088.56;;;-1.80;83.80
76074;BME280;64776;42.636;24.358;2022-11-14T06:17:39;91085.56;;;-1.72;84.16
76074;BME280;64776;42.636;24.358;2022-11-14T06:20:40;91086.31;;;-1.68;84.57
76074;BME280;64776;42.636;24.358;2022-11-14T06:23:43;91087.81;;;-1.59;84.75
76074;BME280;64776;42.636;24.358;2022-11-14T06:26:43;91093.81;;;-1.45;85.05
76074;BME280;64776;42.636;24.358;2022-11-14T06:29:44;91087.81;;;-1.38;85.17
76074;BME280;64776;42.636;24.358;2022-11-14T06:32:45;91082.19;;;-1.23;85.66
76074;BME280;64776;42.636;24.358;2022-11-14T06:35:46;91080.31;;;-1.19;85.69
76074;BME280;64776;42.636;24.358;2022-11-14T06:38:48;91087.03;;;-1.04;86.10
76074;BME280;64776;42.636;24.358;2022-11-14T06:41:49;91080.66;;;-0.92;85.89
76074;BME280;64776;42.636;24.358;2022-11-14T06:44:49;91073.16;;;-0.87;85.60
76074;BME280;64776;42.636;24.358;2022-11-14T06:47:50;91074.22;;;-0.70;85.75
76074;BME280;64776;42.636;24.358;2022-11-14T06:50:51;91077.56;;;-0.55;86.22
76074;BME280;64776;42.636;24.358;2022-11-14T07:01:50;91063.53;;;-0.14;87.14
76074;BME280;64776;42.636;24.358;2022-11-14T07:04:51;91063.50;;;-0.07;86.56
76074;BME280;64776;42.636;24.358;2022-11-14T07:07:52;91060.06;;;0.04;86.17
76074;BME280;64776;42.636;24.358;2022-11-14T07:10:53;91058.78;;;0.26;86.35
76074;BME280;64776;42.636;24.358;2022-11-14T07:13:55;91053.44;;;0.40;86.63
76074;BME280;64776;42.636;24.358;2022-11-14T07:16:58;91061.22;;;0.57;86.23
76074;BME280;64776;42.636;24.358;2022-11-14T07:19:59;91053.97;;;0.68;86.05
76074;BME280;64776;42.636;24.358;2022-11-14T07:22:59;91058.28;;;0.89;86.26
76074;BME280;64776;42.636;24.358;2022-11-14T07:26:01;91058.56;;;1.02;86.92
76074;BME280;64776;42.636;24.358;2022-11-14T07:29:02;91057.97;;;1.24;87.05
76074;BME280;64776;42.636;24.358;2022-11-14T07:32:04;91049.56;;;1.36;86.11
76074;BME280;64776;42.636;24.358;2022-11-14T07:35:06;91042.63;;;1.53;86.64
76074;BME280;64776;42.636;24.358;2022-11-14T07:38:06;91045.66;;;1.82;86.63
76074;BME280;64776;42.636;24.358;2022-11-14T07:41:09;91036.72;;;2.06;85.61
76074;BME280;64776;42.636;24.358;2022-11-14T07:44:10;91035.69;;;2.26;85.19
76074;BME280;64776;42.636;24.358;2022-11-14T07:47:12;91038.75;;;2.48;85.01
76074;BME280;64776;42.636;24.358;2022-11-14T07:50:13;91037.56;;;2.76;84.50
76074;BME280;64776;42.636;24.358;2022-11-14T07:53:14;91034.09;;;2.82;84.81
76074;BME280;64776;42.636;24.358;2022-11-14T07:56:15;91035.56;;;3.06;84.42
76074;BME280;64776;42.636;24.358;2022-11-14T07:59:15;91025.44;;;3.24;84.23
76074;BME280;64776;42.636;24.358;2022-11-14T08:02:18;91029.16;;;3.47;84.26
76074;BME280;64776;42.636;24.358;2022-11-14T08:05:18;91018.13;;;3.71;83.08
76074;BME280;64776;42.636;24.358;2022-11-14T08:08:19;91021.56;;;3.88;81.11
76074;BME280;64776;42.636;24.358;2022-11-14T08:11:20;91015.13;;;4.08;81.83
76074;BME280;64776;42.636;24.358;2022-11-14T08:14:21;91015.25;;;4.37;81.38
76074;BME280;64776;42.636;24.358;2022-11-14T08:17:23;91001.88;;;4.60;81.03
76074;BME280;64776;42.636;24.358;2022-11-14T08:20:24;91004.84;;;4.78;80.01
76074;BME280;64776;42.636;24.358;2022-11-14T08:23:25;91003.00;;;5.08;79.40
76074;BME280;64776;42.636;24.358;2022-11-14T08:26:26;90998.47;;;5.37;77.75
76074;BME280;64776;42.636;24.358;2022-11-14T08:29:27;91003.66;;;5.69;77.45
76074;BME280;64776;42.636;24.358;2022-11-14T08:32:29;90994.28;;;5.81;76.46
76074;BME280;64776;42.636;24.358;2022-11-14T08:35:31;90999.34;;;6.16;76.12
76074;BME280;64776;42.636;24.358;2022-11-14T08:38:33;90988.56;;;6.48;75.55
76074;BME280;64776;42.636;24.358;2022-11-14T08:41:34;90997.19;;;6.87;72.84
76074;BME280;64776;42.636;24.358;2022-11-14T08:44:35;90992.16;;;7.14;73.66
76074;BME280;64776;42.636;24.358;2022-11-14T08:47:37;90995.59;;;7.36;72.21
76074;BME280;64776;42.636;24.358;2022-11-14T08:50:38;90988.03;;;7.69;70.83
76074;BME280;64776;42.636;24.358;2022-11-14T08:53:38;90989.75;;;8.28;70.96
76074;BME280;64776;42.636;24.358;2022-11-14T08:56:39;90982.81;;;8.61;68.56
76074;BME280;64776;42.636;24.358;2022-11-14T08:59:40;90981.88;;;9.03;69.91
76074;BME280;64776;42.636;24.358;2022-11-14T09:02:42;90972.91;;;9.37;69.59
76074;BME280;64776;42.636;24.358;2022-11-14T09:05:49;90967.72;;;9.70;66.80
76074;BME280;64776;42.636;24.358;2022-11-14T09:08:50;90965.00;;;10.06;64.80
76074;BME280;64776;42.636;24.358;2022-11-14T09:11:51;90970.91;;;10.37;64.36
76074;BME280;64776;42.636;24.358;2022-11-14T09:14:51;90951.47;;;10.79;61.96
76074;BME280;64776;42.636;24.358;2022-11-14T09:17:54;90950.66;;;10.96;59.61
76074;BME280;64776;42.636;24.358;2022-11-14T09:20:58;90952.56;;;11.19;60.26
76074;BME280;64776;42.636;24.358;2022-11-14T09:23:59;90942.97;;;11.36;57.08
76074;BME280;64776;42.636;24.358;2022-11-14T09:27:00;90953.22;;;11.53;55.66
76074;BME280;64776;42.636;24.358;2022-11-14T09:30:01;90940.97;;;11.70;55.74
76074;BME280;64776;42.636;24.358;2022-11-14T09:33:05;90939.16;;;11.90;54.16
76074;BME280;64776;42.636;24.358;2022-11-14T09:36:07;90941.44;;;12.12;55.56
76074;BME280;64776;42.636;24.358;2022-11-14T09:39:08;90939.78;;;12.29;55.11
76074;BME280;64776;42.636;24.358;2022-11-14T09:42:23;90928.47;;;12.34;54.21
76074;BME280;64776;42.636;24.358;2022-11-14T09:45:29;90929.38;;;12.46;54.23
76074;BME280;64776;42.636;24.358;2022-11-14T09:48:32;90930.16;;;12.66;54.19
76074;BME280;64776;42.636;24.358;2022-11-14T09:51:38;90924.34;;;12.68;55.39
76074;BME280;64776;42.636;24.358;2022-11-14T09:54:49;90926.56;;;12.69;54.35
76074;BME280;64776;42.636;24.358;2022-11-14T09:57:51;90917.44;;;12.96;54.03
76074;BME280;64776;42.636;24.358;2022-11-14T10:00:55;90910.94;;;13.02;54.50
76074;BME280;64776;42.636;24.358;2022-11-14T10:04:03;90912.41;;;13.18;54.95
76074;BME280;64776;42.636;24.358;2022-11-14T10:07:16;90909.19;;;13.34;52.88
76074;BME280;64776;42.636;24.358;2022-11-14T10:10:32;90905.03;;;13.53;53.87
76074;BME280;64776;42.636;24.358;2022-11-14T10:13:48;90905.63;;;13.43;54.15
76074;BME280;64776;42.636;24.358;2022-11-14T10:17:02;90912.53;;;13.49;54.69
76074;BME280;64776;42.636;24.358;2022-11-14T10:20:12;90907.38;;;13.66;55.75
76074;BME280;64776;42.636;24.358;2022-11-14T10:23:28;90892.91;;;13.83;55.04
76074;BME280;64776;42.636;24.358;2022-11-14T10:26:33;90889.50;;;14.09;54.94
76074;BME280;64776;42.636;24.358;2022-11-14T10:33:08;90890.25;;;14.09;53.58
76074;BME280;64776;42.636;24.358;2022-11-14T10:36:20;90889.59;;;14.20;53.91
76074;BME280;64776;42.636;24.358;2022-11-14T10:39:29;90880.91;;;14.30;53.31
76074;BME280;64776;42.636;24.358;2022-11-14T10:42:35;90875.13;;;14.37;53.67
76074;BME280;64776;42.636;24.358;2022-11-14T10:45:41;90864.00;;;14.50;52.36
76074;BME280;64776;42.636;24.358;2022-11-14T10:48:44;90872.56;;;14.54;53.22
76074;BME280;64776;42.636;24.358;2022-11-14T10:51:50;90864.13;;;14.72;53.28
76074;BME280;64776;42.636;24.358;2022-11-14T10:54:56;90873.38;;;14.34;54.05
76074;BME280;64776;42.636;24.358;2022-11-14T10:57:59;90865.66;;;14.47;54.58
76074;BME280;64776;42.636;24.358;2022-11-14T11:01:34;90870.75;;;14.77;53.81
76074;BME280;64776;42.636;24.358;2022-11-14T11:04:36;90859.09;;;14.85;53.88
76074;BME280;64776;42.636;24.358;2022-11-14T11:07:44;90858.88;;;14.52;54.45
76074;BME280;64776;42.636;24.358;2022-11-14T11:10:46;90857.22;;;14.60;55.78
76074;BME280;64776;42.636;24.358;2022-11-14T11:13:51;90855.03;;;14.58;55.50
76074;BME280;64776;42.636;24.358;2022-11-14T11:17:07;90858.38;;;14.53;55.07
76074;BME280;64776;42.636;24.358;2022-11-14T11:20:28;90851.19;;;14.71;54.01
76074;BME280;64776;42.636;24.358;2022-11-14T11:23:31;90854.91;;;14.84;54.35
76074;BME280;64776;42.636;24.358;2022-11-14T11:26:32;90847.69;;;15.01;53.46
76074;BME280;64776;42.636;24.358;2022-11-14T11:29:32;90841.88;;;15.08;54.14
76074;BME280;64776;42.636;24.358;2022-11-14T11:32:33;90841.09;;;15.02;54.37
76074;BME280;64776;42.636;24.358;2022-11-14T11:35:34;90843.00;;;14.96;54.34
76074;BME280;64776;42.636;24.358;2022-11-14T11:38:37;90841.72;;;14.81;54.79
76074;BME280;64776;42.636;24.358;2022-11-14T11:41:38;90843.31;;;15.09;54.70
76074;BME280;64776;42.636;24.358;2022-11-14T11:44:43;90836.66;;;14.94;54.09
76074;BME280;64776;42.636;24.358;2022-11-14T11:47:50;90833.97;;;14.94;55.42
76074;BME280;64776;42.636;24.358;2022-11-14T11:50:54;90831.72;;;14.87;54.98
76074;BME280;64776;42.636;24.358;2022-11-14T11:54:02;90829.78;;;14.82;55.44
76074;BME280;64776;42.636;24.358;2022-11-14T11:57:12;90834.31;;;14.64;56.28
76074;BME280;64776;42.636;24.358;2022-11-14T12:00:16;90826.03;;;14.74;55.52
76074;BME280;64776;42.636;24.358;2022-11-14T12:03:18;90823.81;;;14.66;56.54
76074;BME280;64776;42.636;24.358;2022-11-14T12:06:20;90822.56;;;14.62;56.71
76074;BME280;64776;42.636;24.358;2022-11-14T12:09:28;90813.50;;;14.59;56.14
76074;BME280;64776;42.636;24.358;2022-11-14T12:12:47;90818.47;;;14.78;56.47
76074;BME280;64776;42.636;24.358;2022-11-14T12:15:59;90815.66;;;14.50;57.13
76074;BME280;64776;42.636;24.358;2022-11-14T12:19:38;90813.47;;;14.48;57.11
76074;BME280;64776;42.636;24.358;2022-11-14T12:26:21;90821.13;;;14.66;56.35
76074;BME280;64776;42.636;24.358;2022-11-14T12:29:44;90812.59;;;14.74;56.38
76074;BME280;64776;42.636;24.358;2022-11-14T12:32:50;90817.09;;;14.88;56.03
76074;BME280;64776;42.636;24.358;2022-11-14T12:35:55;90815.09;;;14.83;56.67
76074;BME280;64776;42.636;24.358;2022-11-14T12:38:58;90817.09;;;14.88;56.70
76074;BME280;64776;42.636;24.358;2022-11-14T12:42:01;90813.91;;;14.89;55.76
76074;BME280;64776;42.636;24.358;2022-11-14T12:45:13;90810.56;;;14.57;57.36
76074;BME280;64776;42.636;24.358;2022-11-14T12:48:35;90813.47;;;14.23;57.61
76074;BME280;64776;42.636;24.358;2022-11-14T12:51:50;90819.94;;;14.36;57.93
76074;BME280;64776;42.636;24.358;2022-11-14T12:54:53;90820.25;;;14.13;58.39
76074;BME280;64776;42.636;24.358;2022-11-14T12:58:01;90814.97;;;13.93;58.68
76074;BME280;64776;42.636;24.358;2022-11-14T13:01:17;90811.19;;;14.10;58.78
76074;BME280;64776;42.636;24.358;2022-11-14T13:04:31;90814.91;;;14.18;58.55
76074;BME280;64776;42.636;24.358;2022-11-14T13:07:43;90815.81;;;14.10;58.41
76074;BME280;64776;42.636;24.358;2022-11-14T13:10:47;90814.34;;;14.09;59.18
76074;BME280;64776;42.636;24.358;2022-11-14T13:13:59;90817.13;;;14.20;58.49
76074;BME280;64776;42.636;24.358;2022-11-14T13:17:09;90815.16;;;14.20;58.36
76074;BME280;64776;42.636;24.358;2022-11-14T13:20:26;90815.81;;;14.35;57.74
76074;BME280;64776;42.636;24.358;2022-11-14T13:23:55;90816.53;;;14.36;58.54
76074;BME280;64776;42.636;24.358;2022-11-14T13:27:23;90819.91;;;14.31;58.42
76074;BME280;64776;42.636;24.358;2022-11-14T13:34:27;90812.03;;;14.22;58.31
76074;BME280;64776;42.636;24.358;2022-11-14T13:37:56;90805.06;;;14.35;58.02
76074;BME280;64776;42.636;24.358;2022-11-14T13:41:19;90815.28;;;14.31;57.46
76074;BME280;64776;42.636;24.358;2022-11-14T13:44:46;90808.03;;;14.43;57.92
76074;BME280;64776;42.636;24.358;2022-11-14T13:52:01;90808.25;;;14.08;57.80
76074;BME280;64776;42.636;24.358;2022-11-14T13:55:04;90808.38;;;13.42;59.49
76074;BME280;64776;42.636;24.358;2022-11-14T13:58:16;90806.41;;;12.97;61.14
76074;BME280;64776;42.636;24.358;2022-11-14T14:01:37;90811.28;;;12.78;61.30
76074;BME280;64776;42.636;24.358;2022-11-14T14:04:50;90804.81;;;12.30;62.97
76074;BME280;64776;42.636;24.358;2022-11-14T14:08:02;90812.16;;;12.00;63.57
76074;BME280;64776;42.636;24.358;2022-11-14T14:11:23;90803.81;;;11.25;66.03
76074;BME280;64776;42.636;24.358;2022-11-14T14:14:45;90809.81;;;11.20;66.60
76074;BME280;64776;42.636;24.358;2022-11-14T14:17:58;90801.88;;;11.11;66.00
76074;BME280;64776;42.636;24.358;2022-11-14T14:21:09;90803.22;;;10.92;66.40
76074;BME280;64776;42.636;24.358;2022-11-14T14:24:34;90816.03;;;10.64;66.33
76074;BME280;64776;42.636;24.358;2022-11-14T14:27:50;90813.66;;;10.10;67.88
76074;BME280;64776;42.636;24.358;2022-11-14T14:31:03;90812.91;;;10.10;67.09
76074;BME280;64776;42.636;24.358;2022-11-14T14:34:23;90804.09;;;9.85;67.74
76074;BME280;64776;42.636;24.358;2022-11-14T14:37:26;90814.13;;;9.49;69.78
76074;BME280;64776;42.636;24.358;2022-11-14T14:40:29;90813.81;;;9.56;70.25
76074;BME280;64776;42.636;24.358;2022-11-14T14:43:34;90813.97;;;9.52;69.86
76074;BME280;64776;42.636;24.358;2022-11-14T14:46:35;90812.97;;;9.41;71.03
76074;BME280;64776;42.636;24.358;2022-11-14T14:49:36;90817.56;;;9.22;72.18
76074;BME280;64776;42.636;24.358;2022-11-14T14:52:39;90813.75;;;9.05;71.70
76074;BME280;64776;42.636;24.358;2022-11-14T14:55:51;90816.09;;;9.03;72.18
76074;BME280;64776;42.636;24.358;2022-11-14T14:58:54;90816.72;;;8.71;72.89
76074;BME280;64776;42.636;24.358;2022-11-14T15:01:56;90815.22;;;8.52;74.27
76074;BME280;64776;42.636;24.358;2022-11-14T15:04:58;90812.84;;;8.45;74.04
76074;BME280;64776;42.636;24.358;2022-11-14T15:07:59;90817.47;;;8.13;75.67
76074;BME280;64776;42.636;24.358;2022-11-14T15:11:01;90817.75;;;8.06;74.83
76074;BME280;64776;42.636;24.358;2022-11-14T15:14:03;90822.31;;;8.06;74.65
76074;BME280;64776;42.636;24.358;2022-11-14T15:17:05;90817.59;;;8.01;75.74
76074;BME280;64776;42.636;24.358;2022-11-14T15:20:20;90812.53;;;7.94;75.08
76074;BME280;64776;42.636;24.358;2022-11-14T15:23:21;90816.56;;;7.37;76.00
76074;BME280;64776;42.636;24.358;2022-11-14T15:26:21;90825.53;;;7.30;76.57
76074;BME280;64776;42.636;24.358;2022-11-14T15:29:25;90827.94;;;7.16;76.49
76074;BME280;64776;42.636;24.358;2022-11-14T15:32:26;90828.25;;;7.18;76.27
76074;BME280;64776;42.636;24.358;2022-11-14T15:35:30;90826.22;;;7.22;75.30
76074;BME280;64776;42.636;24.358;2022-11-14T15:38:30;90832.88;;;7.05;76.10
76074;BME280;64776;42.636;24.358;2022-11-14T15:41:32;90831.41;;;7.04;75.54
76074;BME280;64776;42.636;24.358;2022-11-14T15:44:34;90833.13;;;6.98;75.50
76074;BME280;64776;42.636;24.358;2022-11-14T15:47:38;90837.38;;;6.95;75.31
76074;BME280;64776;42.636;24.358;2022-11-14T15:50:39;90842.88;;;6.79;75.13
76074;BME280;64776;42.636;24.358;2022-11-14T15:53:43;90847.38;;;6.70;75.10
76074;BME280;64776;42.636;24.358;2022-11-14T15:56:44;90847.47;;;6.66;75.21
76074;BME280;64776;42.636;24.358;2022-11-14T15:59:47;90856.69;;;6.62;75.76
76074;BME280;64776;42.636;24.358;2022-11-14T16:02:49;90853.88;;;6.43;75.76
76074;BME280;64776;42.636;24.358;2022-11-14T16:05:51;90850.44;;;6.34;76.00
76074;BME280;64776;42.636;24.358;2022-11-14T16:08:51;90846.53;;;6.26;75.91
76074;BME280;64776;42.636;24.358;2022-11-14T16:11:53;90841.75;;;6.21;76.10
76074;BME280;64776;42.636;24.358;2022-11-14T16:14:56;90855.31;;;6.10;76.05
76074;BME280;64776;42.636;24.358;2022-11-14T16:17:56;90850.69;;;6.02;75.86
76074;BME280;64776;42.636;24.358;2022-11-14T16:20:58;90851.84;;;5.88;76.26
76074;BME280;64776;42.636;24.358;2022-11-14T16:23:58;90854.78;;;5.65;76.75
76074;BME280;64776;42.636;24.358;2022-11-14T16:26:59;90850.13;;;5.69;77.53
76074;BME280;64776;42.636;24.358;2022-11-14T16:30:02;90846.09;;;5.52;77.65